createdAt,value
2018-12-29T00:02:33.663Z,64.90
2018-12-29T00:16:52.746Z,65.40
2018-12-29T00:23:23.818Z,65.10
2018-12-29T00:29:32.148Z,65.80
2018-12-29T00:32:20.191Z,66.20
2018-12-29T00:35:03.370Z,68.20
2018-12-29T00:37:46.698Z,65.80
2018-12-29T00:40:35.405Z,64.50
2018-12-29T00:43:22.210Z,65.30
2018-12-29T00:46:08.100Z,65.40
2018-12-29T00:48:51.185Z,63.30
2018-12-29T00:51:41.480Z,63.10
2018-12-29T00:54:38.980Z,63.10
2018-12-29T00:57:20.835Z,65.80
2018-12-29T01:00:10.391Z,63.70
2018-12-29T01:02:56.957Z,62.70
2018-12-29T01:05:41.314Z,62.80
2018-12-29T01:08:29.003Z,62.50
2018-12-29T01:11:16.449Z,62.80
2018-12-29T01:14:13.377Z,63.30
2018-12-29T01:17:00.236Z,63.20
2018-12-29T01:19:51.451Z,63.90
2018-12-29T01:22:36.880Z,63.70
2018-12-29T01:25:36.906Z,63.60
2018-12-29T01:28:22.399Z,63.70
2018-12-29T01:31:09.457Z,66.20
2018-12-29T01:33:56.107Z,64.60
2018-12-29T01:36:48.463Z,64.50
2018-12-29T01:39:33.461Z,64.40
2018-12-29T01:42:19.479Z,67.80
2018-12-29T01:45:07.392Z,65.50
2018-12-29T01:47:55.471Z,65.70
2018-12-29T01:50:37.898Z,64.90
2018-12-29T01:53:24.453Z,64.60
2018-12-29T01:56:17.059Z,64.60
2018-12-29T01:59:08.431Z,65.90
2018-12-29T02:02:03.269Z,65.30
2018-12-29T02:04:47.930Z,65.80
2018-12-29T02:07:42.483Z,65.30
2018-12-29T02:10:31.484Z,66.40
2018-12-29T02:13:18.240Z,67.50
2018-12-29T02:16:08.083Z,66.70
2018-12-29T02:18:51.818Z,64.10
2018-12-29T02:21:39.246Z,64.00
2018-12-29T02:24:25.159Z,64.70
2018-12-29T02:27:08.496Z,65.30
2018-12-29T02:29:55.663Z,65.90
2018-12-29T02:32:39.117Z,65.10
2018-12-29T02:35:20.693Z,65.90
2018-12-29T02:38:09.367Z,66.00
2018-12-29T02:40:54.376Z,65.60
2018-12-29T02:43:38.469Z,65.80
2018-12-29T02:46:28.258Z,65.50
2018-12-29T02:49:13.888Z,64.20
2018-12-29T02:51:57.322Z,65.20
2018-12-29T02:54:41.374Z,65.90
2018-12-29T02:57:26.029Z,66.20
2018-12-29T03:00:16.832Z,65.90
2018-12-29T03:03:18.037Z,66.00
2018-12-29T03:06:11.488Z,66.40
2018-12-29T03:08:57.503Z,64.90
2018-12-29T03:11:44.355Z,67.10
2018-12-29T03:14:33.188Z,68.10
2018-12-29T03:17:18.854Z,65.50
2018-12-29T03:20:06.900Z,64.30
2018-12-29T03:22:49.453Z,65.20
2018-12-29T03:25:37.138Z,65.50
2018-12-29T03:28:24.933Z,67.20
2018-12-29T03:31:09.526Z,65.90
2018-12-29T03:34:02.508Z,65.30
2018-12-29T03:36:48.585Z,65.40
2018-12-29T03:39:35.512Z,65.10
2018-12-29T03:42:17.439Z,65.70
2018-12-29T03:45:01.643Z,66.20
2018-12-29T03:47:50.142Z,67.80
2018-12-29T03:50:33.834Z,65.90
2018-12-29T03:53:17.577Z,68.50
2018-12-29T03:56:01.312Z,67.00
2018-12-29T03:58:43.209Z,65.80
2018-12-29T04:01:30.522Z,65.60
2018-12-29T04:04:17.495Z,65.50
2018-12-29T04:07:03.029Z,65.20
2018-12-29T04:09:53.534Z,64.70
2018-12-29T04:12:45.300Z,66.90
2018-12-29T04:15:57.818Z,64.80
2018-12-29T04:18:43.505Z,64.70
2018-12-29T04:21:31.540Z,64.20
2018-12-29T04:24:16.521Z,64.60
2018-12-29T04:27:02.968Z,66.00
2018-12-29T04:29:49.587Z,64.30
2018-12-29T04:32:37.249Z,64.60
2018-12-29T04:35:26.594Z,69.30
2018-12-29T04:38:15.437Z,64.50
2018-12-29T04:41:08.437Z,66.70
2018-12-29T04:43:52.175Z,66.10
2018-12-29T04:46:41.600Z,64.40
2018-12-29T04:49:36.606Z,63.40
2018-12-29T04:52:18.407Z,63.10
2018-12-29T04:55:02.607Z,68.00
2018-12-29T04:57:55.566Z,67.40
2018-12-29T05:00:40.612Z,63.50
2018-12-29T05:03:29.649Z,62.90
2018-12-29T05:06:17.615Z,62.90
2018-12-29T05:09:07.611Z,63.20
2018-12-29T05:11:54.429Z,63.00
2018-12-29T05:14:38.423Z,63.20
2018-12-29T05:17:20.017Z,63.70
2018-12-29T05:20:06.523Z,62.80
2018-12-29T05:22:53.337Z,62.80
2018-12-29T05:25:42.341Z,62.80
2018-12-29T05:28:24.540Z,62.90
2018-12-29T05:31:07.054Z,63.70
2018-12-29T05:33:54.591Z,67.70
2018-12-29T05:36:57.638Z,63.50
2018-12-29T05:39:51.144Z,62.30
2018-12-29T05:42:50.195Z,61.70
2018-12-29T05:45:38.235Z,62.00
2018-12-29T05:48:22.606Z,62.20
2018-12-29T05:51:06.618Z,62.00
2018-12-29T05:53:48.578Z,62.10
2018-12-29T05:56:44.680Z,62.00
2018-12-29T05:59:28.348Z,62.50
2018-12-29T06:02:11.117Z,64.40
2018-12-29T06:04:53.986Z,63.60
2018-12-29T06:07:43.204Z,63.70
2018-12-29T06:10:28.618Z,62.80
2018-12-29T06:13:17.669Z,66.80
2018-12-29T06:16:11.035Z,63.00
2018-12-29T06:18:56.641Z,62.60
2018-12-29T06:21:49.599Z,65.10
2018-12-29T06:24:46.488Z,61.20
2018-12-29T06:27:31.478Z,60.60
2018-12-29T06:30:18.285Z,62.20
2018-12-29T06:33:05.679Z,62.40
2018-12-29T06:35:52.639Z,61.70
2018-12-29T06:38:42.452Z,60.50
2018-12-29T06:41:30.488Z,60.50
2018-12-29T06:44:15.149Z,64.70
2018-12-29T06:47:03.493Z,61.90
2018-12-29T06:49:47.693Z,61.40
2018-12-29T06:52:34.354Z,62.80
2018-12-29T06:55:20.267Z,62.80
2018-12-29T06:58:11.047Z,63.80
2018-12-29T07:01:01.508Z,62.20
2018-12-29T07:03:53.503Z,62.80
2018-12-29T07:06:40.397Z,61.60
2018-12-29T07:09:26.707Z,61.60
2018-12-29T07:12:18.271Z,61.40
2018-12-29T07:15:02.628Z,61.50
2018-12-29T07:18:04.692Z,60.70
2018-12-29T07:20:56.477Z,62.20
2018-12-29T07:23:45.894Z,60.70
2018-12-29T07:26:46.127Z,62.50
2018-12-29T07:29:38.201Z,60.40
2018-12-29T07:32:35.103Z,61.10
2018-12-29T07:35:19.152Z,60.90
2018-12-29T07:38:04.425Z,60.20
2018-12-29T07:40:48.694Z,61.30
2018-12-29T07:43:36.514Z,60.90
2018-12-29T07:46:19.638Z,62.90
2018-12-29T07:49:13.690Z,60.80
2018-12-29T07:52:02.738Z,60.80
2018-12-29T07:54:55.128Z,60.80
2018-12-29T07:57:37.742Z,62.50
2018-12-29T08:00:21.699Z,64.80
2018-12-29T08:03:06.752Z,60.90
2018-12-29T08:05:54.442Z,61.10
2018-12-29T08:08:43.345Z,61.10
2018-12-29T08:11:36.301Z,61.00
2018-12-29T08:14:20.944Z,60.70
2018-12-29T08:17:12.075Z,61.20
2018-12-29T08:19:59.507Z,60.00
2018-12-29T08:22:45.988Z,61.60
2018-12-29T08:25:32.245Z,60.00
2018-12-29T08:28:19.722Z,60.80
2018-12-29T08:31:05.795Z,61.10
2018-12-29T08:33:49.724Z,59.90
2018-12-29T08:36:32.775Z,59.10
2018-12-29T08:39:25.773Z,58.80
2018-12-29T08:42:14.606Z,59.30
2018-12-29T08:44:56.501Z,60.70
2018-12-29T08:47:46.779Z,59.00
2018-12-29T08:50:38.465Z,59.10
2018-12-29T08:53:26.983Z,58.50
2018-12-29T08:56:18.749Z,58.40
2018-12-29T08:59:10.795Z,58.30
2018-12-29T09:02:00.460Z,61.80
2018-12-29T09:04:53.794Z,59.80
2018-12-29T09:07:36.777Z,59.20
2018-12-29T09:10:31.763Z,59.50
2018-12-29T09:13:17.180Z,59.00
2018-12-29T09:15:58.754Z,58.70
2018-12-29T09:18:53.801Z,59.00
2018-12-29T09:21:49.646Z,59.20
2018-12-29T09:24:32.153Z,57.80
2018-12-29T09:27:13.701Z,59.80
2018-12-29T09:30:05.209Z,59.20
2018-12-29T09:32:52.557Z,59.80
2018-12-29T09:35:39.819Z,58.70
2018-12-29T09:38:26.213Z,58.00
2018-12-29T09:41:10.569Z,58.50
2018-12-29T09:43:55.542Z,58.10
2018-12-29T09:46:42.777Z,58.40
2018-12-29T09:49:25.736Z,57.80
2018-12-29T09:52:27.851Z,58.50
2018-12-29T09:55:18.146Z,60.70
2018-12-29T09:58:06.788Z,58.70
2018-12-29T10:00:51.115Z,58.30
2018-12-29T10:03:32.790Z,58.70
2018-12-29T10:06:18.325Z,57.60
2018-12-29T10:09:05.748Z,59.70
2018-12-29T10:11:49.489Z,58.80
2018-12-29T10:14:44.240Z,58.60
2018-12-29T10:17:27.146Z,58.40
2018-12-29T10:20:14.837Z,58.20
2018-12-29T10:22:59.860Z,59.00
2018-12-29T10:25:44.813Z,59.40
2018-12-29T10:28:29.740Z,59.20
2018-12-29T10:31:13.813Z,59.50
2018-12-29T10:33:59.030Z,59.60
2018-12-29T10:36:44.604Z,59.50
2018-12-29T10:39:32.639Z,59.40
2018-12-29T10:42:16.733Z,59.40
2018-12-29T10:45:00.176Z,59.20
2018-12-29T10:47:52.151Z,60.70
2018-12-29T10:50:36.110Z,61.20
2018-12-29T10:53:18.831Z,61.40
2018-12-29T10:56:07.847Z,60.90
2018-12-29T10:59:07.739Z,60.50
2018-12-29T11:02:05.568Z,60.90
2018-12-29T11:04:50.835Z,60.00
2018-12-29T11:07:38.616Z,59.50
2018-12-29T11:10:25.742Z,59.40
2018-12-29T11:13:13.777Z,59.50
2018-12-29T11:16:00.032Z,62.00
2018-12-29T11:19:10.858Z,62.60
2018-12-29T11:21:58.479Z,61.20
2018-12-29T11:24:45.850Z,59.70
2018-12-29T11:27:36.851Z,60.50
2018-12-29T11:30:28.304Z,62.60
2018-12-29T11:33:12.806Z,60.90
2018-12-29T11:35:58.919Z,60.40
2018-12-29T11:38:45.112Z,61.70
2018-12-29T11:41:35.332Z,59.70
2018-12-29T11:44:33.920Z,59.40
2018-12-29T11:47:22.825Z,59.40
2018-12-29T11:50:14.508Z,60.00
2018-12-29T11:53:18.870Z,62.80
2018-12-29T11:56:08.755Z,64.50
2018-12-29T11:59:10.574Z,63.70
2018-12-29T12:01:55.849Z,63.70
2018-12-29T12:04:39.594Z,60.40
2018-12-29T12:07:22.726Z,59.30
2018-12-29T12:10:07.681Z,59.50
2018-12-29T12:13:07.929Z,59.70
2018-12-29T12:16:10.940Z,59.80
2018-12-29T12:19:07.896Z,60.40
2018-12-29T12:22:02.589Z,59.80
2018-12-29T12:24:49.709Z,59.90
2018-12-29T12:28:00.940Z,60.80
2018-12-29T12:30:47.950Z,62.20
2018-12-29T12:33:37.900Z,61.80
2018-12-29T12:36:29.910Z,61.90
2018-12-29T12:39:31.940Z,60.50
2018-12-29T12:42:23.723Z,59.80
2018-12-29T12:45:08.650Z,60.10
2018-12-29T12:48:15.918Z,59.70
2018-12-29T12:51:22.966Z,60.50
2018-12-29T12:54:33.959Z,60.90
2018-12-29T12:57:42.023Z,59.80
2018-12-29T13:00:47.919Z,59.80
2018-12-29T13:03:51.493Z,60.00
2018-12-29T13:06:52.926Z,60.10
2018-12-29T13:10:00.780Z,60.00
2018-12-29T13:13:11.553Z,60.40
2018-12-29T13:16:05.435Z,60.70
2018-12-29T13:19:28.666Z,60.70
2018-12-29T13:22:16.938Z,61.20
2018-12-29T13:25:15.983Z,61.20
2018-12-29T13:28:01.986Z,62.80
2018-12-29T13:30:54.997Z,63.50
2018-12-29T13:33:37.557Z,65.30
2018-12-29T13:36:27.948Z,62.70
2018-12-29T13:39:37.993Z,62.60
2018-12-29T13:42:51.948Z,62.60
2018-12-29T13:45:52.388Z,61.60
2018-12-29T13:48:43.998Z,62.00
2018-12-29T13:51:58.957Z,61.70
2018-12-29T13:54:50.311Z,60.80
2018-12-29T13:57:59.588Z,61.10
2018-12-29T14:00:45.751Z,61.50
2018-12-29T14:03:40.012Z,62.10
2018-12-29T14:06:31.689Z,62.10
2018-12-29T14:09:38.013Z,62.70
2018-12-29T14:12:40.904Z,62.10
2018-12-29T14:15:46.764Z,62.30
2018-12-29T14:18:50.975Z,62.40
2018-12-29T14:21:57.054Z,62.20
2018-12-29T14:24:51.440Z,62.60
2018-12-29T14:27:38.859Z,62.30
2018-12-29T14:30:27.872Z,63.30
2018-12-29T14:33:30.985Z,62.70
2018-12-29T14:36:33.988Z,61.30
2018-12-29T14:39:18.715Z,61.10
2018-12-29T14:42:24.044Z,61.80
2018-12-29T14:45:09.494Z,62.10
2018-12-29T14:48:16.626Z,61.40
2018-12-29T14:51:02.780Z,61.40
2018-12-29T14:53:54.824Z,61.70
2018-12-29T14:56:43.823Z,62.00
2018-12-29T14:59:55.060Z,62.40
2018-12-29T15:02:44.792Z,62.10
2018-12-29T15:05:56.059Z,62.10
2018-12-29T15:09:06.013Z,61.60
2018-12-29T15:12:12.061Z,61.40
2018-12-29T15:14:58.062Z,61.40
2018-12-29T15:18:15.875Z,61.00
2018-12-29T15:21:12.026Z,60.70
2018-12-29T15:24:03.058Z,60.20
2018-12-29T15:26:59.395Z,60.80
2018-12-29T15:30:02.078Z,60.50
2018-12-29T15:33:08.960Z,60.70
2018-12-29T15:36:03.086Z,61.00
2018-12-29T15:38:53.910Z,61.00
2018-12-29T15:41:58.038Z,60.90
2018-12-29T15:45:04.747Z,61.10
2018-12-29T15:48:09.031Z,61.60
2018-12-29T15:50:58.911Z,61.50
2018-12-29T15:54:11.055Z,61.60
2018-12-29T15:57:24.051Z,62.00
2018-12-29T16:00:29.738Z,62.40
2018-12-29T16:03:43.141Z,62.30
2018-12-29T16:06:42.109Z,62.40
2018-12-29T16:09:50.954Z,62.30
2018-12-29T16:13:18.932Z,62.80
2018-12-29T16:16:55.071Z,63.10
2018-12-29T16:20:29.990Z,62.70
2018-12-29T16:23:23.559Z,62.80
2018-12-29T16:26:30.032Z,63.50
2018-12-29T16:29:42.496Z,63.50
2018-12-29T16:33:22.112Z,63.20
2018-12-29T16:40:19.432Z,63.70
2018-12-29T16:46:58.845Z,63.60
2018-12-29T16:49:58.470Z,63.20
2018-12-29T16:53:47.118Z,62.70
2018-12-29T16:56:53.156Z,62.60
2018-12-29T17:00:05.759Z,62.70
2018-12-29T17:02:57.160Z,62.90
2018-12-29T17:05:56.550Z,63.10
2018-12-29T17:08:43.491Z,62.80
2018-12-29T17:11:25.159Z,63.30
2018-12-29T17:14:11.588Z,62.50
2018-12-29T17:17:10.120Z,62.70
2018-12-29T17:20:00.887Z,62.90
2018-12-29T17:22:59.354Z,62.70
2018-12-29T17:25:48.987Z,63.10
2018-12-29T17:28:48.127Z,63.10
2018-12-29T17:31:41.958Z,63.30
2018-12-29T17:34:30.016Z,63.70
2018-12-29T17:37:18.961Z,63.80
2018-12-29T17:40:09.137Z,63.60
2018-12-29T17:42:55.658Z,63.70
2018-12-29T17:45:46.191Z,63.90
2018-12-29T17:48:38.502Z,63.70
2018-12-29T17:51:41.149Z,63.50
2018-12-29T17:54:27.173Z,63.90
2018-12-29T17:57:21.971Z,64.00
2018-12-29T18:00:11.513Z,64.20
2018-12-29T18:02:56.473Z,64.20
2018-12-29T18:05:50.656Z,63.80
2018-12-29T18:08:36.159Z,63.70
2018-12-29T18:11:19.988Z,63.70
2018-12-29T18:14:01.877Z,64.30
2018-12-29T18:16:52.733Z,64.40
2018-12-29T18:19:43.167Z,64.20
2018-12-29T18:22:31.842Z,64.40
2018-12-29T18:25:20.533Z,64.40
2018-12-29T18:28:06.075Z,64.60
2018-12-29T18:30:57.223Z,64.50
2018-12-29T18:33:50.425Z,64.60
2018-12-29T18:36:44.232Z,64.50
2018-12-29T18:39:28.722Z,64.90
2018-12-29T18:42:16.106Z,64.90
2018-12-29T18:45:03.574Z,64.90
2018-12-29T18:47:55.240Z,65.10
2018-12-29T18:50:50.203Z,65.30
2018-12-29T18:53:36.603Z,65.20
2018-12-29T18:56:19.115Z,65.20
2018-12-29T18:59:01.627Z,65.10
2018-12-29T19:01:57.577Z,65.00
2018-12-29T19:04:37.967Z,65.00
2018-12-29T19:07:31.248Z,64.70
2018-12-29T19:10:14.970Z,64.80
2018-12-29T19:12:58.716Z,64.80
2018-12-29T19:15:46.754Z,64.50
2018-12-29T19:18:32.026Z,64.40
2018-12-29T19:21:21.328Z,64.30
2018-12-29T19:24:08.223Z,64.80
2018-12-29T19:26:57.068Z,64.60
2018-12-29T19:29:45.169Z,64.70
2018-12-29T19:32:30.163Z,64.80
2018-12-29T19:35:18.124Z,65.00
2018-12-29T19:38:00.980Z,65.30
2018-12-29T19:40:51.237Z,65.40
2018-12-29T19:43:37.062Z,65.30
2018-12-29T19:46:33.050Z,65.00
2018-12-29T19:49:18.999Z,64.70
2018-12-29T19:52:04.289Z,64.70
2018-12-29T19:54:56.860Z,64.60
2018-12-29T19:57:39.294Z,64.90
2018-12-29T20:00:23.294Z,64.90
2018-12-29T20:03:08.130Z,64.70
2018-12-29T20:05:52.177Z,64.70
2018-12-29T20:08:35.612Z,64.70
2018-12-29T20:11:22.722Z,64.90
2018-12-29T20:14:07.032Z,64.80
2018-12-29T20:16:52.657Z,64.90
2018-12-29T20:19:45.263Z,65.20
2018-12-29T20:22:30.324Z,65.10
2018-12-29T20:25:12.743Z,65.30
2018-12-29T20:28:15.221Z,65.30
2018-12-29T20:30:57.730Z,65.60
2018-12-29T20:33:42.084Z,65.70
2018-12-29T20:36:24.640Z,65.40
2018-12-29T20:39:06.800Z,65.30
2018-12-29T20:41:50.326Z,65.30
2018-12-29T20:44:41.086Z,65.40
2018-12-29T20:47:37.119Z,65.10
2018-12-29T20:50:22.084Z,64.80
2018-12-29T20:53:08.893Z,65.10
2018-12-29T20:55:56.011Z,65.40
2018-12-29T20:58:42.827Z,65.70
2018-12-29T21:01:24.673Z,65.70
2018-12-29T21:04:08.723Z,65.50
2018-12-29T21:06:54.039Z,65.50
2018-12-29T21:09:37.732Z,65.50
2018-12-29T21:12:22.349Z,65.30
2018-12-29T21:15:06.134Z,65.10
2018-12-29T21:17:54.245Z,65.40
2018-12-29T21:20:41.297Z,65.50
2018-12-29T21:23:25.078Z,65.40
2018-12-29T21:26:14.041Z,65.30
2018-12-29T21:29:04.190Z,65.40
2018-12-29T21:31:45.774Z,65.70
2018-12-29T21:34:31.366Z,65.90
2018-12-29T21:37:23.135Z,65.80
2018-12-29T21:40:09.328Z,65.60
2018-12-29T21:42:57.603Z,65.90
2018-12-29T21:45:41.114Z,65.80
2018-12-29T21:48:25.170Z,66.20
2018-12-29T21:51:15.355Z,66.20
2018-12-29T21:53:58.778Z,66.30
2018-12-29T21:56:51.998Z,66.20
2018-12-29T21:59:37.388Z,66.10
2018-12-29T22:02:19.827Z,66.10
2018-12-29T22:05:03.214Z,66.40
2018-12-29T22:07:50.332Z,66.50
2018-12-29T22:10:38.681Z,66.80
2018-12-29T22:13:25.230Z,66.50
2018-12-29T22:16:13.355Z,66.50
2018-12-29T22:18:59.115Z,66.60
2018-12-29T22:21:48.737Z,66.50
2018-12-29T22:24:31.819Z,66.50
2018-12-29T22:27:20.368Z,66.80
2018-12-29T22:30:12.371Z,66.90
2018-12-29T22:32:55.984Z,67.00
2018-12-29T22:35:41.830Z,67.10
2018-12-29T22:38:23.392Z,67.00
2018-12-29T22:41:11.189Z,67.10
2018-12-29T22:43:54.276Z,67.20
2018-12-29T22:46:45.318Z,67.10
2018-12-29T22:49:37.383Z,67.20
2018-12-29T22:52:26.696Z,67.00
2018-12-29T22:55:13.206Z,67.40
2018-12-29T22:57:55.752Z,67.90
2018-12-29T23:00:47.129Z,67.40
2018-12-29T23:03:34.862Z,68.10
2018-12-29T23:06:22.402Z,68.10
2018-12-29T23:09:16.168Z,67.40
2018-12-29T23:12:03.900Z,67.60
2018-12-29T23:14:50.075Z,66.70
2018-12-29T23:17:32.924Z,66.70
2018-12-29T23:20:18.757Z,66.80
2018-12-29T23:23:01.927Z,70.40
2018-12-29T23:25:44.412Z,67.80
2018-12-29T23:28:34.938Z,67.40
2018-12-29T23:31:22.187Z,67.60
2018-12-29T23:34:06.149Z,67.50
2018-12-29T23:36:51.116Z,67.80
2018-12-29T23:39:37.268Z,69.20
2018-12-29T23:42:22.281Z,67.80
2018-12-29T23:45:03.259Z,67.40
2018-12-29T23:47:50.374Z,67.40
2018-12-29T23:50:35.253Z,70.60
2018-12-29T23:53:25.184Z,74.20
2018-12-29T23:56:17.216Z,72.30
2018-12-29T23:59:02.805Z,72.00
